John Wayne Airport-Orange County Airport
KSNA : now visible

Airfield :











YOU CAN JOIN US ON...

 
LOGIN :

Register | Disclaimer

   EN    FR    IT 

 









Legend :    VFR   Marginal VFR   IFR   Intensive IFR   Very Intensive IFR
Visi :
Ceiling :
>= 8 km
>= 3000ft
5 to 8 km
1000 to 3000 ft
1500m to 5 km
500 to 1000 ft
800 to 1500m
200 to 500 ft
< 800m
< 200 ft
Symbols :   Thunderstorms  Fog  Heavy snow  Heavy precipitations  Wind > 20 kt







- Airport Elevation : 56 ft
- IATA code : SNA


KSNA - John Wayne -Orange County

CURRENT METAR :
  • 210353Z 24004KT 10SM CLR 22/16 A2985 RMK AO2 SLP107 T02170161

EXPIRED METARs :
  • 210253Z 25003KT 10SM CLR 23/16 A2983 RMK AO2 SLP101 T02280156 55001
  • 210153Z 21005KT 10SM CLR 23/16 A2982 RMK AO2 SLP097 T02280161

TAF KSNA
Valid from the 21 at 00:00 until the 22 at 00:00 UTC


202320Z 2100/2124 23009KT P6SM SKC
FM210300 VRB05KT P6SM FEW010
FM211200 VRB04KT P6SM BKN010
FM211600 VRB04KT P6SM SCT010
FM212100 22008KT P6SM SKC
No reported NOTAMs for that airfield.



MET'MAP, your aeronautical weather chart ! - Copyright ORBIFLY December 2007 - Disclaimer

ORBIFLY MET'MAP TEAM :

Programming & Development : Alexandra Zaïnal
Concept & Development : Baudouin d'Aumeries
Co-Development & Prog : Marc-Olivier Méhu
Technical & hardware support : Manuel Goepfert

Contact : metmap@orbifly.com




SOURCES & CREDITS :

   NOAA       Earth
Advisory